sensor_id;sensor_type;location;lat;lon;timestamp;pressure;altitude;pressure_sealevel;temperature;humidity
62418;BME280;48456;54.242;10.280;2023-02-12T00:02:17;103284.03;;;5.57;100.00
62418;BME280;48456;54.242;10.280;2023-02-12T00:04:43;103291.09;;;5.58;100.00
62418;BME280;48456;54.242;10.280;2023-02-12T00:07:10;103293.81;;;5.59;100.00
62418;BME280;48456;54.242;10.280;2023-02-12T00:09:36;103293.72;;;5.58;100.00
62418;BME280;48456;54.242;10.280;2023-02-12T00:12:02;103312.19;;;5.59;100.00
62418;BME280;48456;54.242;10.280;2023-02-12T00:14:29;103317.53;;;5.61;100.00
62418;BME280;48456;54.242;10.280;2023-02-12T00:16:55;103313.91;;;5.59;100.00
62418;BME280;48456;54.242;10.280;2023-02-12T00:19:21;103313.81;;;5.57;100.00
62418;BME280;48456;54.242;10.280;2023-02-12T00:21:48;103313.81;;;5.57;100.00
62418;BME280;48456;54.242;10.280;2023-02-12T00:24:14;103314.81;;;5.59;100.00
62418;BME280;48456;54.242;10.280;2023-02-12T00:26:40;103320.25;;;5.63;100.00
62418;BME280;48456;54.242;10.280;2023-02-12T00:29:07;103318.59;;;5.65;100.00
62418;BME280;48456;54.242;10.280;2023-02-12T00:31:33;103324.69;;;5.64;100.00
62418;BME280;48456;54.242;10.280;2023-02-12T00:33:59;103316.63;;;5.61;100.00
62418;BME280;48456;54.242;10.280;2023-02-12T00:36:27;103313.03;;;5.58;100.00
62418;BME280;48456;54.242;10.280;2023-02-12T00:38:54;103327.88;;;5.58;100.00
62418;BME280;48456;54.242;10.280;2023-02-12T00:41:21;103321.88;;;5.61;100.00
62418;BME280;48456;54.242;10.280;2023-02-12T00:43:47;103324.50;;;5.61;100.00
62418;BME280;48456;54.242;10.280;2023-02-12T00:46:14;103325.41;;;5.61;100.00
62418;BME280;48456;54.242;10.280;2023-02-12T00:48:41;103326.41;;;5.63;100.00
62418;BME280;48456;54.242;10.280;2023-02-12T00:51:08;103326.50;;;5.65;100.00
62418;BME280;48456;54.242;10.280;2023-02-12T00:53:34;103322.94;;;5.64;100.00
62418;BME280;48456;54.242;10.280;2023-02-12T00:56:00;103329.03;;;5.63;100.00
62418;BME280;48456;54.242;10.280;2023-02-12T00:58:27;103328.84;;;5.60;100.00
62418;BME280;48456;54.242;10.280;2023-02-12T01:00:53;103334.91;;;5.59;100.00
62418;BME280;48456;54.242;10.280;2023-02-12T01:03:19;103342.88;;;5.61;100.00
62418;BME280;48456;54.242;10.280;2023-02-12T01:05:46;103344.59;;;5.60;100.00
62418;BME280;48456;54.242;10.280;2023-02-12T01:08:13;103339.28;;;5.58;100.00
62418;BME280;48456;54.242;10.280;2023-02-12T01:10:40;103342.78;;;5.59;100.00
62418;BME280;48456;54.242;10.280;2023-02-12T01:13:06;103348.13;;;5.61;100.00
62418;BME280;48456;54.242;10.280;2023-02-12T01:21:42;103351.50;;;5.58;100.00
62418;BME280;48456;54.242;10.280;2023-02-12T01:32:51;103369.78;;;5.56;100.00
62418;BME280;48456;54.242;10.280;2023-02-12T01:35:41;103377.56;;;5.55;100.00
62418;BME280;48456;54.242;10.280;2023-02-12T01:38:10;103366.34;;;5.57;100.00
62418;BME280;48456;54.242;10.280;2023-02-12T01:40:37;103379.56;;;5.59;100.00
62418;BME280;48456;54.242;10.280;2023-02-12T01:43:18;103370.84;;;5.60;100.00
62418;BME280;48456;54.242;10.280;2023-02-12T01:48:22;103366.44;;;5.59;100.00
62418;BME280;48456;54.242;10.280;2023-02-12T01:51:36;103369.06;;;5.59;100.00
62418;BME280;48456;54.242;10.280;2023-02-12T01:54:06;103363.88;;;5.61;100.00
62418;BME280;48456;54.242;10.280;2023-02-12T01:56:56;103359.47;;;5.59;100.00
62418;BME280;48456;54.242;10.280;2023-02-12T01:59:36;103369.16;;;5.61;100.00
62418;BME280;48456;54.242;10.280;2023-02-12T02:02:12;103362.19;;;5.61;100.00
62418;BME280;48456;54.242;10.280;2023-02-12T02:04:58;103361.34;;;5.62;100.00
62418;BME280;48456;54.242;10.280;2023-02-12T02:07:40;103357.81;;;5.62;100.00
62418;BME280;48456;54.242;10.280;2023-02-12T02:10:17;103347.31;;;5.62;100.00
62418;BME280;48456;54.242;10.280;2023-02-12T02:12:52;103349.94;;;5.62;100.00
62418;BME280;48456;54.242;10.280;2023-02-12T02:16:05;103350.66;;;5.59;100.00
62418;BME280;48456;54.242;10.280;2023-02-12T02:19:13;103344.59;;;5.60;100.00
62418;BME280;48456;54.242;10.280;2023-02-12T02:30:56;103360.72;;;5.66;100.00
62418;BME280;48456;54.242;10.280;2023-02-12T02:45:19;103362.34;;;5.64;100.00
62418;BME280;48456;54.242;10.280;2023-02-12T02:51:14;103358.91;;;5.65;100.00
62418;BME280;48456;54.242;10.280;2023-02-12T02:54:12;103358.91;;;5.65;100.00
62418;BME280;48456;54.242;10.280;2023-02-12T02:56:45;103361.44;;;5.64;100.00
62418;BME280;48456;54.242;10.280;2023-02-12T03:08:14;103356.75;;;5.58;100.00
62418;BME280;48456;54.242;10.280;2023-02-12T03:14:07;103356.94;;;5.61;100.00
62418;BME280;48456;54.242;10.280;2023-02-12T03:22:26;103359.38;;;5.58;100.00
62418;BME280;48456;54.242;10.280;2023-02-12T03:25:34;103364.53;;;5.56;100.00
62418;BME280;48456;54.242;10.280;2023-02-12T03:28:37;103372.50;;;5.58;100.00
62418;BME280;48456;54.242;10.280;2023-02-12T03:34:17;103368.06;;;5.57;100.00
62418;BME280;48456;54.242;10.280;2023-02-12T03:40:14;103372.41;;;5.56;100.00
62418;BME280;48456;54.242;10.280;2023-02-12T03:43:32;103372.41;;;5.56;100.00
62418;BME280;48456;54.242;10.280;2023-02-12T03:46:55;103376.84;;;5.57;100.00
62418;BME280;48456;54.242;10.280;2023-02-12T03:49:34;103375.94;;;5.57;100.00
62418;BME280;48456;54.242;10.280;2023-02-12T03:52:03;103375.84;;;5.55;100.00
62418;BME280;48456;54.242;10.280;2023-02-12T03:54:30;103379.94;;;5.50;100.00
62418;BME280;48456;54.242;10.280;2023-02-12T03:56:59;103382.47;;;5.49;100.00
62418;BME280;48456;54.242;10.280;2023-02-12T03:59:27;103381.56;;;5.48;100.00
62418;BME280;48456;54.242;10.280;2023-02-12T04:01:54;103386.81;;;5.48;100.00
62418;BME280;48456;54.242;10.280;2023-02-12T04:04:22;103387.63;;;5.47;100.00
62418;BME280;48456;54.242;10.280;2023-02-12T04:06:49;103389.25;;;5.45;100.00
62418;BME280;48456;54.242;10.280;2023-02-12T04:09:16;103389.25;;;5.45;100.00
62418;BME280;48456;54.242;10.280;2023-02-12T04:19:39;103404.00;;;5.43;100.00
62418;BME280;48456;54.242;10.280;2023-02-12T04:33:09;103395.94;;;5.40;100.00
62418;BME280;48456;54.242;10.280;2023-02-12T04:39:03;103411.78;;;5.41;100.00
62418;BME280;48456;54.242;10.280;2023-02-12T04:42:00;103414.41;;;5.41;100.00
62418;BME280;48456;54.242;10.280;2023-02-12T04:44:31;103413.59;;;5.42;100.00
62418;BME280;48456;54.242;10.280;2023-02-12T04:47:13;103418.75;;;5.41;100.00
62418;BME280;48456;54.242;10.280;2023-02-12T04:50:19;103419.75;;;5.43;100.00
62418;BME280;48456;54.242;10.280;2023-02-12T04:52:52;103421.38;;;5.41;100.00
62418;BME280;48456;54.242;10.280;2023-02-12T04:55:18;103420.59;;;5.42;100.00
62418;BME280;48456;54.242;10.280;2023-02-12T04:57:44;103412.81;;;5.43;100.00
62418;BME280;48456;54.242;10.280;2023-02-12T05:00:11;103426.81;;;5.44;100.00
62418;BME280;48456;54.242;10.280;2023-02-12T05:02:47;103426.72;;;5.42;100.00
62418;BME280;48456;54.242;10.280;2023-02-12T05:05:20;103418.94;;;5.44;100.00
62418;BME280;48456;54.242;10.280;2023-02-12T05:07:47;103430.28;;;5.43;100.00
62418;BME280;48456;54.242;10.280;2023-02-12T05:10:13;103437.22;;;5.42;100.00
62418;BME280;48456;54.242;10.280;2023-02-12T05:15:43;103428.47;;;5.42;100.00
62418;BME280;48456;54.242;10.280;2023-02-12T05:18:10;103424.72;;;5.38;100.00
62418;BME280;48456;54.242;10.280;2023-02-12T05:20:36;103426.38;;;5.36;100.00
62418;BME280;48456;54.242;10.280;2023-02-12T05:23:05;103428.72;;;5.31;100.00
62418;BME280;48456;54.242;10.280;2023-02-12T05:25:35;103428.72;;;5.31;100.00
62418;BME280;48456;54.242;10.280;2023-02-12T05:28:04;103432.69;;;5.25;100.00
62418;BME280;48456;54.242;10.280;2023-02-12T05:30:31;103432.69;;;5.25;100.00
62418;BME280;48456;54.242;10.280;2023-02-12T05:32:57;103431.59;;;5.21;100.00
62418;BME280;48456;54.242;10.280;2023-02-12T05:35:35;103442.94;;;5.20;100.00
62418;BME280;48456;54.242;10.280;2023-02-12T05:38:02;103435.69;;;5.16;100.00
62418;BME280;48456;54.242;10.280;2023-02-12T05:40:28;103429.31;;;5.12;100.00
62418;BME280;48456;54.242;10.280;2023-02-12T05:42:54;103429.31;;;5.12;100.00
62418;BME280;48456;54.242;10.280;2023-02-12T05:55:45;103439.00;;;5.13;100.00
62418;BME280;48456;54.242;10.280;2023-02-12T05:58:14;103439.00;;;5.13;100.00
62418;BME280;48456;54.242;10.280;2023-02-12T06:03:32;103443.56;;;5.16;100.00
62418;BME280;48456;54.242;10.280;2023-02-12T06:05:59;103447.97;;;5.17;100.00
62418;BME280;48456;54.242;10.280;2023-02-12T06:08:25;103448.19;;;5.20;100.00
62418;BME280;48456;54.242;10.280;2023-02-12T06:10:51;103445.56;;;5.20;100.00
62418;BME280;48456;54.242;10.280;2023-02-12T06:13:17;103436.84;;;5.21;100.00
62418;BME280;48456;54.242;10.280;2023-02-12T06:15:47;103449.97;;;5.21;100.00
62418;BME280;48456;54.242;10.280;2023-02-12T06:18:19;103448.25;;;5.22;100.00
62418;BME280;48456;54.242;10.280;2023-02-12T06:20:46;103446.53;;;5.22;100.00
62418;BME280;48456;54.242;10.280;2023-02-12T06:23:19;103450.88;;;5.22;100.00
62418;BME280;48456;54.242;10.280;2023-02-12T06:25:49;103459.66;;;5.22;100.00
62418;BME280;48456;54.242;10.280;2023-02-12T06:28:16;103457.94;;;5.23;100.00
62418;BME280;48456;54.242;10.280;2023-02-12T06:41:28;103464.81;;;5.20;100.00
62418;BME280;48456;54.242;10.280;2023-02-12T06:43:54;103470.97;;;5.21;100.00
62418;BME280;48456;54.242;10.280;2023-02-12T06:46:21;103466.53;;;5.20;100.00
62418;BME280;48456;54.242;10.280;2023-02-12T06:48:47;103480.56;;;5.20;100.00
62418;BME280;48456;54.242;10.280;2023-02-12T06:51:15;103471.84;;;5.22;100.00
62418;BME280;48456;54.242;10.280;2023-02-12T06:53:42;103467.53;;;5.22;100.00
62418;BME280;48456;54.242;10.280;2023-02-12T06:56:09;103475.41;;;5.22;100.00
62418;BME280;48456;54.242;10.280;2023-02-12T07:01:58;103491.34;;;5.25;100.00
62418;BME280;48456;54.242;10.280;2023-02-12T07:07:40;103489.91;;;5.30;100.00
62418;BME280;48456;54.242;10.280;2023-02-12T07:10:07;103488.28;;;5.32;100.00
62418;BME280;48456;54.242;10.280;2023-02-12T07:12:33;103498.97;;;5.36;100.00
62418;BME280;48456;54.242;10.280;2023-02-12T07:18:10;103492.81;;;5.35;100.00
62418;BME280;48456;54.242;10.280;2023-02-12T07:20:39;103495.59;;;5.38;100.00
62418;BME280;48456;54.242;10.280;2023-02-12T07:23:05;103491.19;;;5.37;100.00
62418;BME280;48456;54.242;10.280;2023-02-12T07:28:53;103492.97;;;5.38;100.00
62418;BME280;48456;54.242;10.280;2023-02-12T07:31:22;103500.06;;;5.39;100.00
62418;BME280;48456;54.242;10.280;2023-02-12T07:33:51;103502.75;;;5.41;100.00
62418;BME280;48456;54.242;10.280;2023-02-12T07:36:18;103510.00;;;5.45;100.00
62418;BME280;48456;54.242;10.280;2023-02-12T07:38:45;103515.34;;;5.46;100.00
62418;BME280;48456;54.242;10.280;2023-02-12T07:41:13;103514.63;;;5.49;100.00
62418;BME280;48456;54.242;10.280;2023-02-12T07:43:40;103525.44;;;5.54;100.00
62418;BME280;48456;54.242;10.280;2023-02-12T07:46:16;103529.03;;;5.56;100.00
62418;BME280;48456;54.242;10.280;2023-02-12T07:48:44;103534.13;;;5.53;100.00
62418;BME280;48456;54.242;10.280;2023-02-12T07:51:12;103540.25;;;5.53;100.00
62418;BME280;48456;54.242;10.280;2023-02-12T07:53:39;103537.56;;;5.52;100.00
62418;BME280;48456;54.242;10.280;2023-02-12T07:58:35;103543.91;;;5.55;100.00
62418;BME280;48456;54.242;10.280;2023-02-12T08:01:12;103546.63;;;5.57;100.00
62418;BME280;48456;54.242;10.280;2023-02-12T08:03:38;103537.09;;;5.59;100.00
62418;BME280;48456;54.242;10.280;2023-02-12T08:06:12;103551.97;;;5.58;100.00
62418;BME280;48456;54.242;10.280;2023-02-12T08:08:38;103547.91;;;5.64;100.00
62418;BME280;48456;54.242;10.280;2023-02-12T08:11:06;103557.41;;;5.62;100.00
62418;BME280;48456;54.242;10.280;2023-02-12T08:13:34;103549.91;;;5.68;100.00
62418;BME280;48456;54.242;10.280;2023-02-12T08:16:05;103559.97;;;5.75;100.00
62418;BME280;48456;54.242;10.280;2023-02-12T08:18:32;103549.53;;;5.77;100.00
62418;BME280;48456;54.242;10.280;2023-02-12T08:21:05;103555.81;;;5.79;100.00
62418;BME280;48456;54.242;10.280;2023-02-12T08:23:31;103550.66;;;5.80;100.00
62418;BME280;48456;54.242;10.280;2023-02-12T08:28:30;103550.75;;;5.82;100.00
62418;BME280;48456;54.242;10.280;2023-02-12T08:31:04;103550.81;;;5.83;100.00
62418;BME280;48456;54.242;10.280;2023-02-12T08:33:30;103553.72;;;5.88;100.00
62418;BME280;48456;54.242;10.280;2023-02-12T08:36:00;103557.53;;;5.93;100.00
62418;BME280;48456;54.242;10.280;2023-02-12T08:38:27;103554.34;;;5.99;100.00
62418;BME280;48456;54.242;10.280;2023-02-12T08:40:53;103554.44;;;6.01;100.00
62418;BME280;48456;54.242;10.280;2023-02-12T08:43:20;103557.47;;;6.07;100.00
62418;BME280;48456;54.242;10.280;2023-02-12T08:45:47;103562.28;;;6.14;100.00
62418;BME280;48456;54.242;10.280;2023-02-12T08:48:13;103551.41;;;6.23;100.00
62418;BME280;48456;54.242;10.280;2023-02-12T08:50:39;103563.44;;;6.34;100.00
62418;BME280;48456;54.242;10.280;2023-02-12T08:53:06;103554.19;;;6.41;100.00
62418;BME280;48456;54.242;10.280;2023-02-12T08:55:32;103557.47;;;6.37;100.00
62418;BME280;48456;54.242;10.280;2023-02-12T08:57:59;103555.81;;;6.39;100.00
62418;BME280;48456;54.242;10.280;2023-02-12T09:00:26;103560.97;;;6.37;100.00
62418;BME280;48456;54.242;10.280;2023-02-12T09:02:52;103562.09;;;6.41;100.00
62418;BME280;48456;54.242;10.280;2023-02-12T09:05:19;103566.44;;;6.41;100.00
62418;BME280;48456;54.242;10.280;2023-02-12T09:07:45;103566.03;;;6.49;100.00
62418;BME280;48456;54.242;10.280;2023-02-12T09:10:11;103560.22;;;6.55;100.00
62418;BME280;48456;54.242;10.280;2023-02-12T09:12:38;103569.31;;;6.60;100.00
62418;BME280;48456;54.242;10.280;2023-02-12T09:15:04;103568.81;;;6.68;100.00
62418;BME280;48456;54.242;10.280;2023-02-12T09:17:31;103576.34;;;6.76;100.00
62418;BME280;48456;54.242;10.280;2023-02-12T09:19:57;103578.66;;;6.87;100.00
62418;BME280;48456;54.242;10.280;2023-02-12T09:22:23;103583.53;;;6.96;100.00
62418;BME280;48456;54.242;10.280;2023-02-12T09:24:50;103581.97;;;6.99;100.00
62418;BME280;48456;54.242;10.280;2023-02-12T09:27:16;103574.06;;;6.99;100.00
62418;BME280;48456;54.242;10.280;2023-02-12T09:29:42;103579.78;;;7.07;100.00
62418;BME280;48456;54.242;10.280;2023-02-12T09:32:08;103575.00;;;7.17;100.00
62418;BME280;48456;54.242;10.280;2023-02-12T09:34:35;103584.06;;;7.22;100.00
62418;BME280;48456;54.242;10.280;2023-02-12T09:37:01;103585.22;;;7.27;100.00
62418;BME280;48456;54.242;10.280;2023-02-12T09:39:28;103581.75;;;7.28;100.00
62418;BME280;48456;54.242;10.280;2023-02-12T09:46:58;103583.72;;;7.49;100.00
62418;BME280;48456;54.242;10.280;2023-02-12T09:51:52;103582.97;;;7.68;100.00
62418;BME280;48456;54.242;10.280;2023-02-12T09:54:21;103572.59;;;7.71;100.00
62418;BME280;48456;54.242;10.280;2023-02-12T09:56:49;103568.66;;;7.79;100.00
62418;BME280;48456;54.242;10.280;2023-02-12T09:59:21;103580.91;;;7.79;100.00
62418;BME280;48456;54.242;10.280;2023-02-12T10:01:53;103574.31;;;7.87;100.00
62418;BME280;48456;54.242;10.280;2023-02-12T10:04:20;103575.84;;;8.00;100.00
62418;BME280;48456;54.242;10.280;2023-02-12T10:06:50;103579.47;;;8.02;100.00
62418;BME280;48456;54.242;10.280;2023-02-12T10:27:31;103576.66;;;8.16;100.00
62418;BME280;48456;54.242;10.280;2023-02-12T10:30:00;103574.84;;;7.98;100.00
62418;BME280;48456;54.242;10.280;2023-02-12T10:32:29;103576.81;;;8.02;100.00
62418;BME280;48456;54.242;10.280;2023-02-12T10:34:57;103579.94;;;8.12;100.00
62418;BME280;48456;54.242;10.280;2023-02-12T10:39:59;103564.19;;;8.31;100.00
62418;BME280;48456;54.242;10.280;2023-02-12T10:42:38;103565.81;;;8.46;100.00
62418;BME280;48456;54.242;10.280;2023-02-12T10:45:08;103572.69;;;8.61;100.00
62418;BME280;48456;54.242;10.280;2023-02-12T10:47:38;103570.66;;;8.55;100.00
62418;BME280;48456;54.242;10.280;2023-02-12T10:50:07;103566.56;;;8.62;100.00
62418;BME280;48456;54.242;10.280;2023-02-12T10:52:47;103556.50;;;8.53;100.00
62418;BME280;48456;54.242;10.280;2023-02-12T10:55:22;103551.22;;;8.53;100.00
62418;BME280;48456;54.242;10.280;2023-02-12T10:57:49;103559.72;;;8.65;100.00
62418;BME280;48456;54.242;10.280;2023-02-12T11:00:23;103562.81;;;8.75;100.00
62418;BME280;48456;54.242;10.280;2023-02-12T11:05:29;103554.56;;;8.87;100.00
62418;BME280;48456;54.242;10.280;2023-02-12T11:07:56;103559.75;;;8.85;100.00
62418;BME280;48456;54.242;10.280;2023-02-12T11:10:33;103560.00;;;8.71;100.00
62418;BME280;48456;54.242;10.280;2023-02-12T11:13:01;103562.81;;;8.75;100.00
62418;BME280;48456;54.242;10.280;2023-02-12T11:15:29;103556.69;;;8.76;100.00
62418;BME280;48456;54.242;10.280;2023-02-12T11:20:50;103561.25;;;8.98;100.00
62418;BME280;48456;54.242;10.280;2023-02-12T11:23:25;103549.47;;;9.09;100.00
62418;BME280;48456;54.242;10.280;2023-02-12T11:28:36;103561.00;;;9.12;100.00
62418;BME280;48456;54.242;10.280;2023-02-12T11:31:17;103545.38;;;9.16;100.00
62418;BME280;48456;54.242;10.280;2023-02-12T11:33:46;103544.31;;;9.13;100.00
62418;BME280;48456;54.242;10.280;2023-02-12T11:36:32;103540.34;;;9.22;100.00
62418;BME280;48456;54.242;10.280;2023-02-12T11:39:00;103540.75;;;9.32;100.00
62418;BME280;48456;54.242;10.280;2023-02-12T11:41:37;103538.69;;;9.25;100.00
62418;BME280;48456;54.242;10.280;2023-02-12T11:44:08;103534.31;;;9.25;100.00
62418;BME280;48456;54.242;10.280;2023-02-12T11:46:36;103532.91;;;9.14;100.00
62418;BME280;48456;54.242;10.280;2023-02-12T11:49:02;103529.75;;;9.03;100.00
62418;BME280;48456;54.242;10.280;2023-02-12T11:51:30;103537.34;;;8.95;100.00
62418;BME280;48456;54.242;10.280;2023-02-12T11:53:58;103530.19;;;8.92;100.00
62418;BME280;48456;54.242;10.280;2023-02-12T11:56:39;103533.47;;;9.06;100.00
62418;BME280;48456;54.242;10.280;2023-02-12T12:01:51;103527.16;;;9.42;100.00
62418;BME280;48456;54.242;10.280;2023-02-12T12:04:20;103524.94;;;9.94;100.00
62418;BME280;48456;54.242;10.280;2023-02-12T12:06:56;103524.63;;;10.29;100.00
62418;BME280;48456;54.242;10.280;2023-02-12T12:17:09;103522.50;;;8.97;100.00
62418;BME280;48456;54.242;10.280;2023-02-12T12:20:02;103528.09;;;8.85;100.00
62418;BME280;48456;54.242;10.280;2023-02-12T12:27:32;103530.53;;;8.62;100.00
62418;BME280;48456;54.242;10.280;2023-02-12T12:30:35;103523.72;;;8.49;100.00
62418;BME280;48456;54.242;10.280;2023-02-12T12:33:04;103528.66;;;8.41;100.00
62418;BME280;48456;54.242;10.280;2023-02-12T12:35:52;103525.09;;;8.41;100.00
62418;BME280;48456;54.242;10.280;2023-02-12T12:40:56;103526.00;;;8.41;100.00
62418;BME280;48456;54.242;10.280;2023-02-12T12:53:36;103524.28;;;8.24;100.00
62418;BME280;48456;54.242;10.280;2023-02-12T12:58:51;103523.59;;;8.10;100.00
62418;BME280;48456;54.242;10.280;2023-02-12T13:06:50;103517.25;;;7.88;100.00
62418;BME280;48456;54.242;10.280;2023-02-12T13:09:28;103518.56;;;7.79;100.00
62418;BME280;48456;54.242;10.280;2023-02-12T13:12:27;103517.56;;;7.77;100.00
62418;BME280;48456;54.242;10.280;2023-02-12T13:14:54;103514.88;;;7.76;100.00
62418;BME280;48456;54.242;10.280;2023-02-12T13:20:10;103515.47;;;7.70;100.00
62418;BME280;48456;54.242;10.280;2023-02-12T13:27:38;103505.53;;;7.64;100.00
62418;BME280;48456;54.242;10.280;2023-02-12T13:30:14;103511.38;;;7.59;100.00
62418;BME280;48456;54.242;10.280;2023-02-12T13:32:48;103506.94;;;7.58;100.00
62418;BME280;48456;54.242;10.280;2023-02-12T13:35:18;103507.69;;;7.55;100.00
62418;BME280;48456;54.242;10.280;2023-02-12T13:37:46;103496.00;;;7.50;100.00
62418;BME280;48456;54.242;10.280;2023-02-12T13:40:17;103503.75;;;7.47;100.00
62418;BME280;48456;54.242;10.280;2023-02-12T13:45:32;103498.66;;;7.33;100.00
62418;BME280;48456;54.242;10.280;2023-02-12T13:53:13;103499.16;;;7.09;100.00
62418;BME280;48456;54.242;10.280;2023-02-12T14:00:58;103491.91;;;7.22;100.00
62418;BME280;48456;54.242;10.280;2023-02-12T14:03:25;103498.56;;;7.32;100.00
62418;BME280;48456;54.242;10.280;2023-02-12T14:08:39;103486.16;;;7.29;100.00
62418;BME280;48456;54.242;10.280;2023-02-12T14:11:07;103484.28;;;7.26;100.00
62418;BME280;48456;54.242;10.280;2023-02-12T14:13:53;103474.44;;;7.24;100.00
62418;BME280;48456;54.242;10.280;2023-02-12T14:18:46;103479.13;;;7.30;100.00
62418;BME280;48456;54.242;10.280;2023-02-12T14:23:41;103485.16;;;7.27;100.00
62418;BME280;48456;54.242;10.280;2023-02-12T14:28:54;103481.88;;;7.31;100.00
62418;BME280;48456;54.242;10.280;2023-02-12T14:31:28;103480.97;;;7.31;100.00
62418;BME280;48456;54.242;10.280;2023-02-12T14:41:49;103476.44;;;7.28;100.00
62418;BME280;48456;54.242;10.280;2023-02-12T14:46:52;103485.25;;;7.28;100.00
62418;BME280;48456;54.242;10.280;2023-02-12T14:49:35;103475.28;;;7.23;100.00
62418;BME280;48456;54.242;10.280;2023-02-12T14:52:05;103482.31;;;7.22;100.00
62418;BME280;48456;54.242;10.280;2023-02-12T14:54:42;103483.09;;;7.21;100.00
62418;BME280;48456;54.242;10.280;2023-02-12T14:59:40;103491.91;;;7.05;100.00
62418;BME280;48456;54.242;10.280;2023-02-12T15:02:12;103485.16;;;6.94;100.00
62418;BME280;48456;54.242;10.280;2023-02-12T15:04:39;103491.81;;;6.87;100.00
62418;BME280;48456;54.242;10.280;2023-02-12T15:07:11;103492.47;;;6.83;100.00
62418;BME280;48456;54.242;10.280;2023-02-12T15:10:02;103509.16;;;6.83;100.00
62418;BME280;48456;54.242;10.280;2023-02-12T15:12:39;103496.66;;;6.79;100.00
62418;BME280;48456;54.242;10.280;2023-02-12T15:15:14;103505.78;;;6.69;100.00
62418;BME280;48456;54.242;10.280;2023-02-12T15:17:50;103508.97;;;6.63;100.00
62418;BME280;48456;54.242;10.280;2023-02-12T15:26:11;103516.53;;;6.57;100.00
62418;BME280;48456;54.242;10.280;2023-02-12T15:28:38;103513.06;;;6.58;100.00
62418;BME280;48456;54.242;10.280;2023-02-12T15:31:05;103516.44;;;6.56;100.00
62418;BME280;48456;54.242;10.280;2023-02-12T15:33:38;103514.72;;;6.56;100.00
62418;BME280;48456;54.242;10.280;2023-02-12T15:36:06;103521.88;;;6.59;100.00
62418;BME280;48456;54.242;10.280;2023-02-12T15:38:34;103521.59;;;6.54;100.00
62418;BME280;48456;54.242;10.280;2023-02-12T15:41:01;103524.31;;;6.56;100.00
62418;BME280;48456;54.242;10.280;2023-02-12T15:43:29;103533.59;;;6.49;100.00
62418;BME280;48456;54.242;10.280;2023-02-12T15:45:57;103525.53;;;6.46;100.00
62418;BME280;48456;54.242;10.280;2023-02-12T15:48:27;103520.16;;;6.44;100.00
62418;BME280;48456;54.242;10.280;2023-02-12T15:50:55;103533.31;;;6.44;100.00
62418;BME280;48456;54.242;10.280;2023-02-12T15:53:25;103533.31;;;6.44;100.00
62418;BME280;48456;54.242;10.280;2023-02-12T15:55:53;103527.91;;;6.41;100.00
62418;BME280;48456;54.242;10.280;2023-02-12T16:00:50;103540.22;;;6.42;100.00
62418;BME280;48456;54.242;10.280;2023-02-12T16:03:21;103539.06;;;6.37;100.00
62418;BME280;48456;54.242;10.280;2023-02-12T16:05:48;103539.84;;;6.36;100.00
62418;BME280;48456;54.242;10.280;2023-02-12T16:08:16;103544.38;;;6.39;100.00
62418;BME280;48456;54.242;10.280;2023-02-12T16:10:44;103547.75;;;6.36;100.00
62418;BME280;48456;54.242;10.280;2023-02-12T16:14:16;103552.91;;;6.34;100.00
62418;BME280;48456;54.242;10.280;2023-02-12T16:18:39;103551.09;;;6.33;100.00
62418;BME280;48456;54.242;10.280;2023-02-12T16:21:09;103546.59;;;6.31;100.00
62418;BME280;48456;54.242;10.280;2023-02-12T16:23:36;103560.75;;;6.33;100.00
62418;BME280;48456;54.242;10.280;2023-02-12T16:26:03;103555.38;;;6.31;100.00
62418;BME280;48456;54.242;10.280;2023-02-12T16:28:30;103553.72;;;6.33;100.00
62418;BME280;48456;54.242;10.280;2023-02-12T16:31:10;103553.72;;;6.33;100.00
62418;BME280;48456;54.242;10.280;2023-02-12T16:36:27;103554.38;;;6.29;100.00
62418;BME280;48456;54.242;10.280;2023-02-12T16:38:52;103555.19;;;6.28;100.00
62418;BME280;48456;54.242;10.280;2023-02-12T16:43:46;103557.00;;;6.29;100.00
62418;BME280;48456;54.242;10.280;2023-02-12T16:46:14;103559.38;;;6.24;100.00
62418;BME280;48456;54.242;10.280;2023-02-12T16:48:43;103552.47;;;6.27;100.00
62418;BME280;48456;54.242;10.280;2023-02-12T16:51:26;103559.63;;;6.29;100.00
62418;BME280;48456;54.242;10.280;2023-02-12T16:53:56;103547.94;;;6.24;100.00
62418;BME280;48456;54.242;10.280;2023-02-12T16:56:25;103554.13;;;6.24;100.00
62418;BME280;48456;54.242;10.280;2023-02-12T16:58:52;103556.66;;;6.23;100.00
62418;BME280;48456;54.242;10.280;2023-02-12T17:01:23;103551.41;;;6.23;100.00
62418;BME280;48456;54.242;10.280;2023-02-12T17:03:50;103562.91;;;6.25;100.00
62418;BME280;48456;54.242;10.280;2023-02-12T17:06:18;103565.63;;;6.27;100.00
62418;BME280;48456;54.242;10.280;2023-02-12T17:08:45;103562.72;;;6.22;100.00
62418;BME280;48456;54.242;10.280;2023-02-12T17:11:11;103570.44;;;6.19;100.00
62418;BME280;48456;54.242;10.280;2023-02-12T17:13:40;103566.81;;;6.17;100.00
62418;BME280;48456;54.242;10.280;2023-02-12T17:16:06;103568.63;;;6.18;100.00
62418;BME280;48456;54.242;10.280;2023-02-12T17:18:33;103570.25;;;6.16;100.00
62418;BME280;48456;54.242;10.280;2023-02-12T17:21:04;103569.44;;;6.17;100.00
62418;BME280;48456;54.242;10.280;2023-02-12T17:23:31;103559.94;;;6.19;100.00
62418;BME280;48456;54.242;10.280;2023-02-12T17:25:58;103566.00;;;6.18;100.00
62418;BME280;48456;54.242;10.280;2023-02-12T17:28:24;103565.09;;;6.17;100.00